Time;durP1;ratioP1;P1;durP2;ratioP2;P2;SDS_P1;SDS_P2;PMS_P1;PMS_P2;Temp;Humidity;BMP_temperature;BMP_pressure;BME280_temperature;BME280_humidity;BME280_pressure;Samples;Min_cycle;Max_cycle;Signal;HPM_P1;HPM_P2
2021/10/31 00:00:04;;;;;;;30.63;17.20;;;;;;;6.36;64.98;98939.45;2171804;81;20996;-83
2021/10/31 00:03:03;;;;;;;33.67;18.13;;;;;;;6.20;65.22;98939.81;2171111;81;20957;-83
2021/10/31 00:06:03;;;;;;;31.00;18.47;;;;;;;6.09;65.56;98943.80;2170247;81;20968;-84
2021/10/31 00:09:07;;;;;;;29.20;17.10;;;;;;;6.08;65.82;98935.55;2169871;81;21051;-84
2021/10/31 00:12:09;;;;;;;31.33;18.23;;;;;;;6.01;66.00;98937.45;2171052;81;21037;-84
2021/10/31 00:15:10;;;;;;;31.80;18.90;;;;;;;5.90;66.36;98935.83;2171398;81;20991;-84
2021/10/31 00:18:10;;;;;;;26.87;17.37;;;;;;;5.90;66.36;98950.49;2171268;81;21374;-84
2021/10/31 00:21:11;;;;;;;30.90;17.53;;;;;;;5.84;66.07;98954.15;2170090;81;20992;-84
2021/10/31 00:24:12;;;;;;;24.47;16.90;;;;;;;5.75;66.13;98965.09;2169455;81;20945;-83
2021/10/31 00:27:12;;;;;;;31.33;17.53;;;;;;;5.67;66.28;98961.38;2175207;81;20975;-83
2021/10/31 00:30:13;;;;;;;25.27;16.83;;;;;;;5.56;66.67;98955.84;2177827;82;20933;-84
2021/10/31 00:33:13;;;;;;;28.20;17.63;;;;;;;5.45;67.11;98953.31;2171078;81;21340;-83
2021/10/31 00:36:13;;;;;;;40.97;18.93;;;;;;;5.36;67.24;98959.47;2171046;80;20953;-84
2021/10/31 00:39:14;;;;;;;30.60;17.97;;;;;;;5.34;67.78;98956.83;2170495;81;20974;-84
2021/10/31 00:42:14;;;;;;;26.70;17.23;;;;;;;5.37;67.65;98956.05;2171860;81;20925;-83
2021/10/31 00:45:15;;;;;;;31.80;18.07;;;;;;;5.26;67.82;98955.69;2173432;81;20925;-83
2021/10/31 00:48:16;;;;;;;29.37;17.33;;;;;;;5.17;68.06;98950.58;2170041;82;20925;-84
2021/10/31 00:51:16;;;;;;;28.47;17.57;;;;;;;5.06;68.16;98943.31;2172130;81;21392;-83
2021/10/31 00:54:17;;;;;;;27.53;16.73;;;;;;;4.97;68.15;98946.00;2170329;82;21060;-84
2021/10/31 00:57:20;;;;;;;32.67;19.23;;;;;;;4.92;68.50;98954.00;2162709;81;21423;-83
2021/10/31 01:00:21;;;;;;;30.73;19.23;;;;;;;4.90;68.84;98953.95;2172916;81;21288;-83
2021/10/31 01:03:22;;;;;;;30.23;19.17;;;;;;;4.93;68.98;98960.53;2173219;82;20946;-84
2021/10/31 01:06:22;;;;;;;32.37;18.50;;;;;;;4.96;69.15;98954.17;2173494;81;20913;-84
2021/10/31 01:09:23;;;;;;;30.13;19.07;;;;;;;4.95;68.71;98953.70;2172715;81;20949;-84
2021/10/31 01:12:24;;;;;;;31.97;18.63;;;;;;;4.88;69.08;98954.31;2171532;81;21035;-84
2021/10/31 01:15:25;;;;;;;30.80;20.03;;;;;;;4.82;69.08;98942.45;2171230;81;20981;-83
2021/10/31 01:18:28;;;;;;;37.23;21.07;;;;;;;4.85;69.37;98956.78;2158924;82;21055;-83
2021/10/31 01:21:28;;;;;;;36.47;20.87;;;;;;;4.92;69.61;98957.47;2172892;81;20902;-83
2021/10/31 01:24:29;;;;;;;34.77;20.20;;;;;;;4.99;69.81;98964.63;2173330;81;20972;-84
2021/10/31 01:27:29;;;;;;;36.77;21.70;;;;;;;5.06;69.52;98969.19;2172539;81;20936;-84
2021/10/31 01:30:30;;;;;;;35.73;22.37;;;;;;;4.98;69.43;98968.45;2172290;81;20949;-84
2021/10/31 01:33:30;;;;;;;36.37;22.27;;;;;;;4.94;69.53;98963.58;2173221;81;21336;-84
2021/10/31 01:36:31;;;;;;;36.63;21.60;;;;;;;4.85;69.48;98968.42;2172496;81;21138;-83
2021/10/31 01:39:31;;;;;;;29.70;19.50;;;;;;;4.73;69.44;98963.69;2170863;81;20929;-84
2021/10/31 01:42:33;;;;;;;32.87;21.03;;;;;;;4.62;69.49;98966.30;2172444;81;20928;-84
2021/10/31 01:45:35;;;;;;;34.50;22.03;;;;;;;4.59;69.61;98967.88;2170178;81;20980;-84
2021/10/31 01:48:35;;;;;;;31.63;21.23;;;;;;;4.52;69.80;98977.52;2169141;82;20999;-84
2021/10/31 01:51:36;;;;;;;38.20;22.03;;;;;;;4.41;70.15;98977.13;2170953;81;21340;-83
2021/10/31 01:54:36;;;;;;;38.00;23.20;;;;;;;4.36;70.31;98985.11;2172521;81;20961;-84
2021/10/31 01:57:37;;;;;;;37.47;20.30;;;;;;;4.34;70.51;98980.30;2172234;81;20921;-83
2021/10/31 02:00:37;;;;;;;31.80;19.40;;;;;;;4.30;70.30;98984.43;2160403;82;21344;-84
2021/10/31 02:03:38;;;;;;;35.00;20.57;;;;;;;4.24;70.54;98977.73;2170155;81;20929;-83
2021/10/31 02:06:38;;;;;;;33.90;20.13;;;;;;;4.19;70.41;98975.38;2172038;81;20901;-83
2021/10/31 02:09:41;;;;;;;32.90;20.30;;;;;;;4.16;70.65;98972.27;2160623;82;21040;-84
2021/10/31 02:12:41;;;;;;;33.37;20.77;;;;;;;4.15;70.55;98978.26;2172908;81;21011;-84
2021/10/31 02:15:42;;;;;;;34.20;19.97;;;;;;;4.10;70.70;98972.44;2172657;81;20992;-84
2021/10/31 02:18:43;;;;;;;30.43;18.77;;;;;;;4.02;70.62;98976.02;2173149;82;21392;-84
2021/10/31 02:21:43;;;;;;;32.57;19.30;;;;;;;3.99;70.96;98978.48;2172565;81;20944;-84
2021/10/31 02:24:45;;;;;;;28.60;17.53;;;;;;;4.00;71.28;98978.06;2171205;81;20953;-84
2021/10/31 02:27:46;;;;;;;31.10;19.23;;;;;;;3.95;71.29;98977.88;2172527;81;21029;-83
2021/10/31 02:30:46;;;;;;;32.03;19.53;;;;;;;3.95;71.79;98973.13;2171408;81;20961;-83
2021/10/31 02:33:47;;;;;;;35.83;20.27;;;;;;;3.96;72.23;98974.48;2172226;81;20933;-83
2021/10/31 02:39:53;;;;;;;29.93;20.00;;;;;;;4.07;72.26;98971.91;2132269;83;21032;-84
2021/10/31 02:42:54;;;;;;;33.17;20.77;;;;;;;4.09;72.29;98977.14;2169781;82;21383;-83
2021/10/31 02:45:54;;;;;;;33.53;20.47;;;;;;;4.15;72.56;98979.96;2173098;82;21412;-83
2021/10/31 02:52:00;;;;;;;31.50;19.83;;;;;;;4.25;72.61;98977.33;2137332;82;20969;-83
2021/10/31 02:55:01;;;;;;;33.13;21.20;;;;;;;4.27;72.42;98981.73;2173172;81;20933;-83
2021/10/31 02:58:02;;;;;;;31.97;20.27;;;;;;;4.28;72.45;98977.03;2172341;82;21328;-83
2021/10/31 03:01:03;;;;;;;36.07;21.93;;;;;;;4.27;72.09;98992.06;2171744;81;20957;-83
2021/10/31 03:04:04;;;;;;;34.07;21.97;;;;;;;4.25;72.22;98996.30;2172506;81;21352;-83
2021/10/31 03:07:04;;;;;;;29.17;18.90;;;;;;;4.25;72.56;98991.12;2173058;81;20968;-83
2021/10/31 03:10:05;;;;;;;30.67;18.77;;;;;;;4.24;71.89;98996.23;2170981;81;20937;-83
2021/10/31 03:13:06;;;;;;;30.40;19.60;;;;;;;4.12;72.02;98995.34;2169936;81;21371;-83
2021/10/31 03:16:06;;;;;;;29.00;17.73;;;;;;;4.03;72.03;98992.39;2169531;81;21040;-83
2021/10/31 03:19:07;;;;;;;31.23;17.93;;;;;;;3.93;71.79;98991.15;2170471;81;21040;-83
2021/10/31 03:22:07;;;;;;;28.43;18.10;;;;;;;3.85;72.04;98992.54;2171049;81;21031;-83
2021/10/31 03:25:08;;;;;;;23.67;16.87;;;;;;;3.78;72.33;98987.53;2170904;81;20999;-83
2021/10/31 03:28:08;;;;;;;28.77;17.70;;;;;;;3.69;72.17;98987.16;2170690;81;20940;-83
2021/10/31 03:31:09;;;;;;;27.17;18.17;;;;;;;3.64;72.60;98989.97;2171756;81;21000;-83
2021/10/31 03:34:09;;;;;;;28.53;17.83;;;;;;;3.61;72.40;99001.86;2171655;81;20980;-83
2021/10/31 03:37:10;;;;;;;33.53;20.53;;;;;;;3.51;72.17;98999.31;2171185;81;20957;-83
2021/10/31 03:40:10;;;;;;;27.37;17.40;;;;;;;3.47;72.44;98994.84;2170165;81;20914;-83
2021/10/31 03:43:11;;;;;;;28.33;16.87;;;;;;;3.40;72.65;98992.78;2170565;82;21328;-83
2021/10/31 03:46:12;;;;;;;25.87;18.33;;;;;;;3.34;72.48;98999.86;2170306;81;21301;-82
2021/10/31 03:49:12;;;;;;;28.13;19.33;;;;;;;3.28;72.85;98993.55;2171606;82;21004;-83
2021/10/31 03:52:13;;;;;;;28.93;17.63;;;;;;;3.30;73.95;99000.95;2172059;81;20953;-83
2021/10/31 03:55:13;;;;;;;26.70;17.83;;;;;;;3.32;73.05;99004.07;2171274;81;20914;-83
2021/10/31 03:58:14;;;;;;;33.80;20.60;;;;;;;3.32;73.95;99005.36;2170895;82;21013;-83
2021/10/31 04:01:15;;;;;;;30.70;19.67;;;;;;;3.38;73.68;99007.31;2170979;81;20976;-82
2021/10/31 04:04:15;;;;;;;32.27;20.77;;;;;;;3.38;73.43;99005.62;2170099;81;20941;-82
2021/10/31 04:07:16;;;;;;;32.37;19.93;;;;;;;3.44;73.71;99007.58;2169968;81;20965;-83
2021/10/31 04:10:16;;;;;;;30.70;18.63;;;;;;;3.47;73.76;99011.20;2171043;81;20898;-82
2021/10/31 04:13:17;;;;;;;30.60;20.57;;;;;;;3.45;73.40;99012.80;2171121;81;21084;-83
2021/10/31 04:16:18;;;;;;;34.13;20.03;;;;;;;3.48;74.11;99014.66;2171845;81;20949;-83
2021/10/31 04:19:18;;;;;;;35.80;19.50;;;;;;;3.49;73.41;99015.14;2170153;81;20981;-82
2021/10/31 04:22:19;;;;;;;28.67;18.97;;;;;;;3.42;73.29;99018.24;2170852;81;20993;-83
2021/10/31 04:25:19;;;;;;;32.97;19.13;;;;;;;3.37;73.48;99021.92;2170046;81;20901;-82
2021/10/31 04:28:20;;;;;;;27.17;17.87;;;;;;;3.35;73.34;99022.67;2170122;82;20914;-83
2021/10/31 04:31:20;;;;;;;40.20;20.10;;;;;;;3.28;73.48;99015.48;2169964;82;20949;-83
2021/10/31 04:34:21;;;;;;;35.30;19.10;;;;;;;3.27;73.83;99017.18;2169201;81;20933;-84
2021/10/31 04:37:22;;;;;;;38.03;18.60;;;;;;;3.28;73.44;99012.91;2168446;81;20997;-83
2021/10/31 04:40:23;;;;;;;30.57;18.77;;;;;;;3.22;73.36;99012.23;2171156;81;20973;-83
2021/10/31 04:43:25;;;;;;;32.90;18.07;;;;;;;3.16;73.30;99018.00;2172007;81;20973;-83
2021/10/31 04:46:26;;;;;;;29.63;18.37;;;;;;;3.11;73.33;99010.48;2170082;81;20905;-84
2021/10/31 04:49:27;;;;;;;27.27;17.93;;;;;;;3.12;73.52;99013.94;2170925;81;21000;-83
2021/10/31 04:52:27;;;;;;;33.80;19.50;;;;;;;3.15;73.64;99012.78;2170204;81;20981;-83
2021/10/31 04:55:28;;;;;;;29.00;19.43;;;;;;;3.20;74.07;99009.58;2171804;81;20954;-83
2021/10/31 04:58:29;;;;;;;33.87;20.63;;;;;;;3.24;73.78;99007.14;2171529;81;20984;-84
2021/10/31 05:01:30;;;;;;;31.27;18.47;;;;;;;3.23;73.68;99004.08;2169582;81;20941;-83
2021/10/31 05:04:30;;;;;;;30.00;19.37;;;;;;;3.27;74.30;99010.73;2170684;81;20992;-83
2021/10/31 05:07:31;;;;;;;33.30;20.87;;;;;;;3.33;74.57;99014.86;2170245;81;20901;-84
2021/10/31 05:10:31;;;;;;;30.03;18.70;;;;;;;3.44;74.40;99008.87;2171067;81;21332;-84
2021/10/31 05:13:32;;;;;;;34.13;20.77;;;;;;;3.42;74.09;99007.92;2171050;81;20956;-84
2021/10/31 05:16:35;;;;;;;32.17;20.37;;;;;;;3.40;74.37;99022.45;2170221;81;20945;-83
2021/10/31 05:19:34;;;;;;;29.90;19.07;;;;;;;3.43;74.27;99016.14;2171947;81;21099;-83
2021/10/31 05:22:35;;;;;;;29.10;19.90;;;;;;;3.36;73.73;99011.53;2171057;81;20905;-83
2021/10/31 05:25:35;;;;;;;29.53;18.60;;;;;;;3.26;73.78;99002.92;2170366;81;20937;-84
2021/10/31 05:28:36;;;;;;;27.00;18.97;;;;;;;3.22;74.02;99007.48;2171998;81;20925;-83
2021/10/31 05:31:39;;;;;;;31.23;18.67;;;;;;;3.24;74.15;99009.72;2170015;81;20981;-83
2021/10/31 05:34:39;;;;;;;27.57;18.13;;;;;;;3.22;74.08;99011.34;2172137;81;21435;-83
2021/10/31 05:37:42;;;;;;;31.50;18.20;;;;;;;3.19;76.64;99003.95;2170970;81;20993;-84
2021/10/31 05:40:42;;;;;;;33.73;20.70;;;;;;;7.73;100.00;98988.23;2171057;82;20938;-84
2021/10/31 05:43:43;;;;;;;27.60;17.17;;;;;;;9.96;79.84;98986.09;2170036;82;20918;-82
2021/10/31 05:46:45;;;;;;;30.80;16.87;;;;;;;11.23;70.57;98977.92;2169771;81;21036;-82
2021/10/31 05:49:46;;;;;;;25.57;17.50;;;;;;;12.30;66.82;98968.53;2169258;82;21020;-82
2021/10/31 05:52:47;;;;;;;25.97;16.50;;;;;;;13.14;62.01;98971.19;2172275;81;21347;-83
2021/10/31 05:55:47;;;;;;;26.77;16.53;;;;;;;13.22;60.22;98972.55;2170399;81;20973;-83
2021/10/31 06:01:51;;;;;;;24.40;17.50;;;;;;;13.30;53.70;98988.75;2131323;83;21483;-82
2021/10/31 06:04:52;;;;;;;24.07;17.00;;;;;;;11.42;54.17;98996.89;2169241;82;20977;-82
2021/10/31 06:10:55;;;;;;;25.60;17.60;;;;;;;8.80;56.79;99002.98;2161723;82;21442;-82
2021/10/31 06:13:56;;;;;;;22.87;16.93;;;;;;;7.94;58.23;99009.59;2169428;82;21023;-83
2021/10/31 06:16:56;;;;;;;32.03;16.80;;;;;;;7.29;59.56;99020.41;2168298;81;21000;-82
2021/10/31 06:19:57;;;;;;;21.83;16.60;;;;;;;6.84;60.74;99015.64;2168656;81;22069;-82
2021/10/31 06:22:57;;;;;;;28.63;17.10;;;;;;;6.51;61.79;99018.53;2168513;82;20976;-82
2021/10/31 06:25:59;;;;;;;27.67;17.60;;;;;;;6.33;62.83;99017.13;2170220;81;20980;-81
2021/10/31 06:29:00;;;;;;;26.87;17.97;;;;;;;6.24;63.67;99016.84;2168672;81;20983;-82
2021/10/31 06:32:00;;;;;;;22.63;16.83;;;;;;;6.22;64.16;99025.41;2170863;82;20965;-82
2021/10/31 06:35:01;;;;;;;24.77;17.43;;;;;;;6.22;64.65;99026.28;2172385;81;21329;-83
2021/10/31 06:38:03;;;;;;;26.60;17.23;;;;;;;6.21;64.85;99028.83;2159618;82;21064;-82
2021/10/31 06:41:07;;;;;;;23.07;16.67;;;;;;;6.19;65.27;99028.78;2171403;81;20922;-81
2021/10/31 06:44:07;;;;;;;25.03;17.30;;;;;;;6.20;65.81;99035.72;2169992;81;20997;-82
2021/10/31 06:47:08;;;;;;;24.47;17.60;;;;;;;6.28;66.01;99041.16;2170240;81;20941;-81
2021/10/31 06:50:09;;;;;;;23.43;17.30;;;;;;;6.42;66.42;99044.18;2169687;81;21008;-82
2021/10/31 06:53:09;;;;;;;24.13;17.67;;;;;;;6.58;66.38;99049.00;2171482;81;21339;-81
2021/10/31 06:59:20;;;;;;;33.75;23.87;;;;;;;6.92;66.21;99047.00;2159050;82;21339;-80
2021/10/31 07:02:29;;;;;;;27.93;17.20;;;;;;;7.11;66.15;99045.44;2170430;82;21408;-81
2021/10/31 07:05:30;;;;;;;23.00;17.77;;;;;;;7.26;65.85;99048.47;2170630;81;20922;-83
2021/10/31 07:08:31;;;;;;;23.40;16.37;;;;;;;7.45;65.53;99051.57;2170934;81;20957;-82
2021/10/31 07:11:32;;;;;;;19.50;15.37;;;;;;;7.59;65.38;99048.51;2170956;82;21402;-81
2021/10/31 07:14:33;;;;;;;25.67;16.27;;;;;;;7.75;65.30;99049.79;2170881;81;20957;-82
2021/10/31 07:17:35;;;;;;;25.73;17.30;;;;;;;7.91;65.21;99055.00;2172347;81;21440;-81
2021/10/31 07:20:35;;;;;;;24.23;16.33;;;;;;;8.10;64.65;99058.52;2171184;82;21012;-82
2021/10/31 07:23:41;;;;;;;24.23;16.37;;;;;;;8.31;64.61;99048.64;2171815;81;20953;-82
2021/10/31 07:26:51;;;;;;;21.20;15.63;;;;;;;8.49;64.18;99052.12;2168504;82;21020;-81
2021/10/31 07:29:51;;;;;;;22.37;16.43;;;;;;;8.68;63.98;99048.69;2169241;81;20975;-81
2021/10/31 07:32:57;;;;;;;22.67;16.43;;;;;;;8.81;63.63;99045.08;2170401;81;20973;-82
2021/10/31 07:35:58;;;;;;;19.90;15.53;;;;;;;8.97;63.27;99044.11;2169620;81;21435;-81
2021/10/31 07:38:58;;;;;;;23.10;17.37;;;;;;;9.12;62.80;99041.83;2160940;82;21027;-78
2021/10/31 07:42:02;;;;;;;19.97;15.23;;;;;;;9.24;62.35;99044.68;2170008;82;21424;-82
2021/10/31 07:45:05;;;;;;;21.80;15.37;;;;;;;9.38;61.86;99043.23;2171634;81;21424;-81
2021/10/31 07:48:10;;;;;;;21.75;15.00;;;;;;;9.53;62.16;99040.04;2161943;82;21455;-81
2021/10/31 07:51:10;;;;;;;20.73;15.37;;;;;;;9.67;60.64;99036.00;2172385;81;21017;-81
2021/10/31 07:54:11;;;;;;;24.10;15.77;;;;;;;9.81;60.93;99038.42;2172984;81;21016;-81
2021/10/31 07:57:12;;;;;;;20.00;14.57;;;;;;;9.95;60.81;99037.36;2171099;81;21344;-81
2021/10/31 08:00:13;;;;;;;22.67;16.20;;;;;;;10.11;60.02;99034.16;2172329;81;21273;-82
2021/10/31 08:03:13;;;;;;;22.00;16.17;;;;;;;10.27;60.33;99034.45;2172928;82;21015;-82
2021/10/31 08:09:16;;;;;;;25.13;17.87;;;;;;;10.61;59.84;99022.82;2160838;82;21021;-81
2021/10/31 08:12:28;;;;;;;39.63;26.93;;;;;;;10.77;59.46;99030.89;2173093;81;21427;-81
2021/10/31 08:15:33;;;;;;;18.33;14.70;;;;;;;10.97;59.33;99036.81;2172755;81;21037;-82
2021/10/31 08:21:48;;;;;;;27.07;17.03;;;;;;;11.23;57.99;99023.64;2159268;82;21385;-82
2021/10/31 08:27:58;;;;;;;23.73;17.17;;;;;;;11.52;57.49;99025.75;2136803;82;20984;-81
2021/10/31 08:31:00;;;;;;;21.35;16.00;;;;;;;11.66;57.68;99018.92;2164885;81;21051;-81
2021/10/31 08:34:01;;;;;;;22.43;16.40;;;;;;;11.83;57.57;99020.00;2171403;82;20989;-81
2021/10/31 08:37:02;;;;;;;22.20;16.15;;;;;;;11.99;57.33;99020.59;2172318;81;21337;-80
2021/10/31 08:40:17;;;;;;;24.27;16.07;;;;;;;12.13;56.62;99020.28;2170361;82;21005;-82
2021/10/31 08:43:19;;;;;;;22.27;15.43;;;;;;;12.28;56.44;99017.37;2159856;82;20984;-82
2021/10/31 08:46:30;;;;;;;19.50;14.18;;;;;;;12.47;56.33;99007.48;2143012;83;21000;-80
2021/10/31 08:56:31;;;;;;;17.12;13.00;;;;;;;13.05;54.34;98998.66;2162106;82;20969;-79
2021/10/31 09:02:48;;;;;;;22.70;13.15;;;;;;;13.37;52.98;99006.25;2131480;83;21508;-80
2021/10/31 09:08:54;;;;;;;17.02;11.97;;;;;;;13.64;52.06;99007.19;2108436;83;21149;-80
2021/10/31 09:11:55;;;;;;;17.23;11.90;;;;;;;13.70;51.21;98998.02;2133286;83;20996;-81
2021/10/31 09:14:56;;;;;;;15.38;11.55;;;;;;;13.76;50.64;98994.53;2133344;83;21018;-81
2021/10/31 09:18:02;;;;;;;15.58;11.68;;;;;;;13.84;50.99;98991.05;2124959;83;21063;-82
2021/10/31 09:21:05;;;;;;;14.93;11.90;;;;;;;14.02;51.13;98992.84;2132954;83;20956;-79
2021/10/31 09:24:12;;;;;;;16.02;12.33;;;;;;;14.16;50.41;98992.84;2130751;83;21062;-81
2021/10/31 09:27:13;;;;;;;18.67;11.35;;;;;;;14.24;50.44;98981.45;2130863;83;21351;-81
2021/10/31 09:33:18;;;;;;;11.90;9.63;;;;;;;14.48;49.67;98977.96;2128498;82;21411;-80
2021/10/31 09:36:25;;;;;;;13.18;10.10;;;;;;;14.59;48.66;98981.44;2143851;82;21019;-80
2021/10/31 09:39:31;;;;;;;12.33;10.18;;;;;;;14.73;48.60;98977.47;2155356;83;21008;-80
2021/10/31 09:42:40;;;;;;;12.58;9.83;;;;;;;14.89;48.87;98974.38;2170554;82;20905;-81
2021/10/31 09:45:41;;;;;;;12.98;10.00;;;;;;;15.03;48.41;98972.58;2173570;81;21305;-82
2021/10/31 09:51:51;;;;;;;11.60;8.95;;;;;;;15.24;47.67;98969.85;2163071;82;21391;-80
2021/10/31 09:54:53;;;;;;;15.00;9.18;;;;;;;15.39;47.42;98967.58;2173033;82;20937;-80
2021/10/31 09:57:53;;;;;;;11.57;8.83;;;;;;;15.49;46.41;98967.09;2172569;81;21345;-79
2021/10/31 10:00:57;;;;;;;13.68;8.43;;;;;;;15.59;45.44;98954.34;2172488;81;21110;-82
2021/10/31 10:11:09;;;;;;;11.28;8.98;;;;;;;15.85;45.29;98955.06;2083797;85;21032;-79
2021/10/31 10:14:09;;;;;;;10.38;8.55;;;;;;;15.97;45.45;98953.22;2129273;84;20956;-80
2021/10/31 10:17:11;;;;;;;11.05;8.75;;;;;;;16.05;45.08;98946.13;2129924;84;20936;-80
2021/10/31 10:20:12;;;;;;;11.33;8.08;;;;;;;16.14;44.79;98947.37;2129849;84;20964;-80
2021/10/31 10:23:13;;;;;;;11.38;7.92;;;;;;;16.15;43.53;98944.72;2129796;84;20984;-80
2021/10/31 10:26:13;;;;;;;10.93;8.13;;;;;;;16.19;43.90;98945.56;2129958;84;21043;-80
2021/10/31 10:29:14;;;;;;;8.13;6.85;;;;;;;16.26;43.19;98939.36;2129720;84;20920;-81
2021/10/31 10:32:17;;;;;;;8.10;7.03;;;;;;;16.35;42.99;98937.95;2129924;84;21417;-78
2021/10/31 10:38:28;;;;;;;8.85;7.45;;;;;;;16.45;41.18;98929.06;2090123;84;21069;-79
2021/10/31 10:41:30;;;;;;;8.93;7.53;;;;;;;16.52;42.20;98935.17;2104140;84;21011;-80
2021/10/31 10:44:40;;;;;;;10.28;6.62;;;;;;;16.57;41.83;98932.05;2130018;84;21024;-79
2021/10/31 10:47:43;;;;;;;12.47;7.90;;;;;;;16.61;40.99;98929.81;2155054;82;21007;-80
2021/10/31 10:50:49;;;;;;;8.67;7.47;;;;;;;16.62;41.41;98921.02;2180087;81;21000;-80
2021/10/31 10:57:00;;;;;;;11.18;7.75;;;;;;;16.72;41.89;98911.27;2162177;82;21095;-78
2021/10/31 11:00:01;;;;;;;8.23;7.42;;;;;;;16.85;41.80;98908.91;2170217;82;21321;-79
2021/10/31 11:03:02;;;;;;;13.95;11.57;;;;;;;16.91;42.22;98905.33;2169417;81;21112;-78
2021/10/31 11:09:23;;;;;;;8.33;7.45;;;;;;;17.01;41.63;98899.05;2161944;82;20957;-80
2021/10/31 11:12:24;;;;;;;10.18;6.75;;;;;;;17.08;40.61;98887.07;2173633;81;20997;-81
2021/10/31 11:15:26;;;;;;;12.50;7.03;;;;;;;17.12;40.81;98883.95;2128567;84;21046;-79
2021/10/31 11:21:44;;;;;;;8.08;6.12;;;;;;;17.23;39.98;98879.84;2097160;85;21016;-80
2021/10/31 11:24:52;;;;;;;9.53;7.33;;;;;;;17.27;40.13;98882.86;2146684;82;21039;-81
2021/10/31 11:27:53;;;;;;;9.53;7.65;;;;;;;17.31;40.49;98877.52;2172120;82;21032;-81
2021/10/31 11:30:53;;;;;;;9.73;7.42;;;;;;;17.36;39.90;98870.88;2171952;81;20922;-83
2021/10/31 11:33:54;;;;;;;8.93;7.08;;;;;;;17.37;39.80;98871.30;2172582;81;21320;-81
2021/10/31 11:36:54;;;;;;;8.63;6.42;;;;;;;17.42;39.60;98861.55;2171535;82;20921;-80
2021/10/31 11:39:55;;;;;;;10.05;7.30;;;;;;;17.45;39.28;98866.34;2170579;81;21059;-81
2021/10/31 11:42:56;;;;;;;6.72;6.03;;;;;;;17.48;39.14;98867.61;2170384;81;21052;-81
2021/10/31 11:45:57;;;;;;;9.75;7.03;;;;;;;17.49;38.91;98856.61;2169593;81;21012;-80
2021/10/31 11:48:58;;;;;;;8.40;6.55;;;;;;;17.51;38.67;98856.13;2170458;82;20961;-80
2021/10/31 11:51:58;;;;;;;8.68;6.78;;;;;;;17.53;39.08;98855.66;2172658;82;20949;-80
2021/10/31 11:54:59;;;;;;;7.95;6.47;;;;;;;17.57;39.39;98852.08;2171887;81;21388;-81
2021/10/31 11:58:02;;;;;;;9.00;8.08;;;;;;;17.61;38.63;98852.45;2171804;81;20898;-80
2021/10/31 12:01:03;;;;;;;11.93;7.83;;;;;;;17.62;38.33;98849.36;2113874;84;21399;-80
2021/10/31 12:04:04;;;;;;;8.78;6.45;;;;;;;17.67;38.74;98846.23;2127995;84;20984;-81
2021/10/31 12:07:04;;;;;;;12.35;7.83;;;;;;;17.67;38.60;98846.23;2128648;84;20945;-79
2021/10/31 12:10:05;;;;;;;11.03;7.83;;;;;;;17.61;39.10;98844.53;2128578;84;20994;-80
2021/10/31 12:13:05;;;;;;;9.40;7.47;;;;;;;17.56;39.91;98842.41;2127714;84;21078;-80
2021/10/31 12:16:06;;;;;;;13.08;7.62;;;;;;;17.53;39.63;98838.51;2127123;84;20991;-80
2021/10/31 12:19:06;;;;;;;8.95;7.40;;;;;;;17.52;39.66;98840.72;2128759;84;21320;-79
2021/10/31 12:22:07;;;;;;;9.65;7.50;;;;;;;17.50;39.96;98842.52;2128892;84;20904;-80
2021/10/31 12:25:08;;;;;;;10.48;7.65;;;;;;;17.48;39.97;98828.47;2128725;84;20921;-79
2021/10/31 12:28:08;;;;;;;14.30;9.73;;;;;;;17.49;39.83;98827.58;2128936;84;21003;-81
2021/10/31 12:31:09;;;;;;;11.03;7.92;;;;;;;17.47;39.82;98820.13;2128981;84;20909;-79
2021/10/31 12:34:10;;;;;;;8.30;7.30;;;;;;;17.47;39.94;98816.17;2128455;84;20937;-80
2021/10/31 12:37:10;;;;;;;7.85;6.97;;;;;;;17.48;39.52;98822.75;2127296;84;21035;-80
2021/10/31 12:40:11;;;;;;;8.25;7.30;;;;;;;17.47;39.28;98811.77;2127813;84;21164;-80
2021/10/31 12:43:11;;;;;;;9.08;7.62;;;;;;;17.44;39.05;98816.23;2128661;83;21007;-80
2021/10/31 12:46:12;;;;;;;9.00;7.80;;;;;;;17.41;39.53;98814.51;2128429;84;20972;-80
2021/10/31 12:49:12;;;;;;;9.65;7.70;;;;;;;17.39;39.95;98800.47;2127980;83;21304;-80
2021/10/31 12:52:13;;;;;;;11.65;8.05;;;;;;;17.38;39.91;98799.17;2127136;84;21937;-80
2021/10/31 12:55:13;;;;;;;9.78;7.78;;;;;;;17.38;39.91;98799.17;2127573;84;20928;-79
2021/10/31 12:58:14;;;;;;;9.38;7.45;;;;;;;17.38;39.83;98801.81;2128650;84;20901;-80
2021/10/31 13:01:14;;;;;;;8.83;7.92;;;;;;;17.33;39.71;98797.02;2128192;84;20908;-81
2021/10/31 13:04:15;;;;;;;15.00;7.92;;;;;;;17.32;39.96;98796.16;2128577;84;21355;-80
2021/10/31 13:07:15;;;;;;;9.50;7.75;;;;;;;17.32;39.96;98796.16;2128070;83;20952;-80
2021/10/31 13:10:16;;;;;;;9.73;7.58;;;;;;;17.28;39.51;98792.27;2128084;84;20932;-80
2021/10/31 13:13:16;;;;;;;10.75;9.25;;;;;;;17.22;40.34;98791.05;2127997;84;21027;-80
2021/10/31 13:16:17;;;;;;;14.58;8.73;;;;;;;17.18;40.98;98795.05;2128826;83;21339;-80
2021/10/31 13:19:17;;;;;;;11.80;9.53;;;;;;;17.18;42.17;98788.91;2128524;84;20945;-80
2021/10/31 13:22:18;;;;;;;12.78;9.35;;;;;;;17.16;42.53;98790.25;2128922;83;20979;-80
2021/10/31 13:25:19;;;;;;;10.45;9.05;;;;;;;17.12;42.85;98789.00;2128971;83;20974;-80
2021/10/31 13:28:20;;;;;;;13.65;9.28;;;;;;;17.05;42.94;98785.59;2128164;84;21023;-78
2021/10/31 13:31:22;;;;;;;11.30;8.73;;;;;;;17.00;42.86;98787.42;2128429;84;21016;-79
2021/10/31 13:37:25;;;;;;;15.20;9.75;;;;;;;18.27;46.24;98781.34;2159908;82;21431;-79
2021/10/31 13:40:26;;;;;;;15.63;9.58;;;;;;;19.07;43.25;98775.67;2171412;81;21055;-78
2021/10/31 13:43:26;;;;;;;10.72;9.45;;;;;;;19.52;42.26;98769.29;2171825;81;21028;-79
2021/10/31 13:46:27;;;;;;;11.35;9.53;;;;;;;19.79;40.75;98775.23;2170403;82;20943;-81
2021/10/31 13:49:27;;;;;;;11.05;8.58;;;;;;;19.80;40.93;98769.02;2169958;81;20999;-80
2021/10/31 13:52:28;;;;;;;14.15;9.25;;;;;;;19.82;40.45;98767.20;2170033;81;20980;-81
2021/10/31 13:55:28;;;;;;;19.37;10.88;;;;;;;19.77;40.15;98763.80;2170456;82;20957;-80
2021/10/31 13:58:29;;;;;;;13.93;10.15;;;;;;;19.63;39.53;98756.68;2172367;81;20976;-79
2021/10/31 14:01:29;;;;;;;12.55;9.78;;;;;;;19.49;39.69;98760.10;2170388;81;21004;-80
2021/10/31 14:04:31;;;;;;;10.90;9.45;;;;;;;19.49;39.69;98760.10;2173152;81;20977;-80
2021/10/31 14:07:32;;;;;;;18.05;10.18;;;;;;;19.47;39.57;98757.95;2171354;82;21017;-80
2021/10/31 14:10:33;;;;;;;11.25;9.25;;;;;;;19.37;39.86;98763.47;2170556;81;20965;-80
2021/10/31 14:13:33;;;;;;;12.60;9.03;;;;;;;19.33;39.94;98763.13;2171322;81;21020;-80
2021/10/31 14:16:33;;;;;;;11.10;8.83;;;;;;;19.31;39.81;98757.46;2170371;81;20997;-80
2021/10/31 14:19:34;;;;;;;10.50;9.30;;;;;;;19.19;39.79;98753.80;2170345;81;21004;-80
2021/10/31 14:22:34;;;;;;;10.18;9.18;;;;;;;19.09;39.83;98746.08;2171138;82;20949;-78
2021/10/31 14:25:35;;;;;;;16.10;9.38;;;;;;;19.01;39.62;98749.78;2170617;81;20925;-79
2021/10/31 14:28:36;;;;;;;11.12;8.78;;;;;;;18.94;39.36;98754.34;2171533;81;20977;-80
2021/10/31 14:31:36;;;;;;;10.08;8.83;;;;;;;18.31;38.95;98752.17;2171721;82;21008;-80
2021/10/31 14:34:37;;;;;;;10.45;8.45;;;;;;;17.51;39.51;98755.85;2172750;82;20924;-79
2021/10/31 14:37:37;;;;;;;14.30;8.58;;;;;;;16.90;40.52;98755.49;2171419;81;20953;-79
2021/10/31 14:40:38;;;;;;;9.00;8.08;;;;;;;16.41;41.42;98752.61;2169800;81;21340;-79
2021/10/31 14:43:38;;;;;;;16.42;10.65;;;;;;;16.28;42.38;98755.84;2169706;82;21510;-79
2021/10/31 14:46:39;;;;;;;13.45;9.03;;;;;;;15.89;42.93;98749.28;2170250;81;20937;-80
2021/10/31 14:49:40;;;;;;;12.82;8.98;;;;;;;15.40;43.67;98752.78;2171589;81;20956;-79
2021/10/31 14:52:40;;;;;;;11.48;9.13;;;;;;;14.95;44.42;98753.14;2171541;81;20968;-79
2021/10/31 14:55:41;;;;;;;12.30;9.33;;;;;;;14.60;45.11;98756.41;2170345;81;20937;-80
2021/10/31 14:58:41;;;;;;;12.73;8.63;;;;;;;14.30;45.97;98756.09;2169776;82;20995;-79
2021/10/31 15:01:43;;;;;;;13.40;8.63;;;;;;;13.95;46.93;98748.34;2171013;81;21020;-80
2021/10/31 15:04:44;;;;;;;11.55;8.50;;;;;;;13.62;47.44;98744.91;2169052;81;20972;-79
2021/10/31 15:07:44;;;;;;;11.73;8.20;;;;;;;13.31;48.08;98745.38;2172564;81;21352;-80